Time;durP1;ratioP1;P1;durP2;ratioP2;P2;SDS_P1;SDS_P2;PMS_P1;PMS_P2;Temp;Humidity;BMP_temperature;BMP_pressure;BME280_temperature;BME280_humidity;BME280_pressure;Samples;Min_cycle;Max_cycle;Signal;HPM_P1;HPM_P2
2024/01/31 00:01:28;;;;;;;3.97;3.03;;;;;;;;;;4959322;28;20525;-85
2024/01/31 00:03:55;;;;;;;5.63;4.17;;;;;;;;;;4983213;28;20556;-85
2024/01/31 00:06:25;;;;;;;8.13;3.27;;;;;;;;;;4965163;28;20769;-83
2024/01/31 00:08:56;;;;;;;7.53;4.10;;;;;;;;;;4967020;28;20477;-83
2024/01/31 00:11:32;;;;;;;5.70;4.30;;;;;;;;;;4973097;28;20985;-85
2024/01/31 00:14:02;;;;;;;7.10;4.00;;;;;;;;;;4966859;28;20469;-86
2024/01/31 00:16:29;;;;;;;4.93;4.27;;;;;;;;;;4948656;28;20446;-84
2024/01/31 00:18:57;;;;;;;6.70;4.23;;;;;;;;;;4949490;28;20485;-83
2024/01/31 00:21:25;;;;;;;5.47;4.50;;;;;;;;;;4929467;28;20501;-84
2024/01/31 00:23:54;;;;;;;6.73;5.00;;;;;;;;;;4954912;28;20477;-85
2024/01/31 00:26:21;;;;;;;5.00;4.37;;;;;;;;;;4957449;28;20467;-85
2024/01/31 00:29:38;;;;;;;5.43;4.33;;;;;;;;;;4958073;28;21022;-84
2024/01/31 00:32:19;;;;;;;7.00;5.10;;;;;;;;;;4923800;28;20453;-86
2024/01/31 00:34:49;;;;;;;9.53;5.47;;;;;;;;;;4955667;28;20469;-85
2024/01/31 00:37:19;;;;;;;9.73;4.30;;;;;;;;;;4954067;28;20552;-84
2024/01/31 00:39:47;;;;;;;8.97;5.80;;;;;;;;;;4960161;28;20485;-83
2024/01/31 00:42:15;;;;;;;10.80;6.70;;;;;;;;;;4972586;28;20445;-84
2024/01/31 00:44:49;;;;;;;9.77;6.00;;;;;;;;;;4949830;28;20462;-84
2024/01/31 00:47:37;;;;;;;10.00;5.90;;;;;;;;;;4953692;28;20487;-89
2024/01/31 00:50:08;;;;;;;8.70;5.90;;;;;;;;;;4953900;28;20452;-85
2024/01/31 00:52:36;;;;;;;8.07;6.23;;;;;;;;;;4957362;28;20517;-86
2024/01/31 00:55:06;;;;;;;7.07;6.00;;;;;;;;;;4949954;28;20894;-86
2024/01/31 00:57:42;;;;;;;7.70;5.80;;;;;;;;;;4943313;28;20480;-85
2024/01/31 01:00:11;;;;;;;10.63;6.23;;;;;;;;;;4940649;28;20508;-86
2024/01/31 01:02:40;;;;;;;8.37;6.67;;;;;;;;;;4954165;28;20465;-84
2024/01/31 01:05:10;;;;;;;9.40;6.50;;;;;;;;;;4937864;28;20552;-84
2024/01/31 01:07:41;;;;;;;8.93;7.10;;;;;;;;;;4936259;28;20496;-84
2024/01/31 01:10:13;;;;;;;10.70;6.23;;;;;;;;;;4949574;28;20657;-84
2024/01/31 01:12:42;;;;;;;9.50;6.93;;;;;;;;;;4955099;28;20659;-85
2024/01/31 01:15:10;;;;;;;9.47;7.50;;;;;;;;;;4940721;28;20493;-87
2024/01/31 01:17:41;;;;;;;10.40;6.83;;;;;;;;;;4946393;28;20625;-86
2024/01/31 01:20:11;;;;;;;10.00;7.60;;;;;;;;;;4951930;28;20519;-86
2024/01/31 01:22:39;;;;;;;10.37;7.10;;;;;;;;;;4955482;28;20529;-85
2024/01/31 01:25:06;;;;;;;11.53;7.93;;;;;;;;;;4965533;28;20457;-85
2024/01/31 01:27:34;;;;;;;12.17;7.30;;;;;;;;;;4950982;28;20485;-86
2024/01/31 01:30:02;;;;;;;11.10;7.67;;;;;;;;;;4950661;28;20456;-86
2024/01/31 01:32:31;;;;;;;9.90;7.60;;;;;;;;;;4948723;28;20457;-85
2024/01/31 01:34:59;;;;;;;10.10;7.27;;;;;;;;;;4964185;28;20437;-83
2024/01/31 01:37:26;;;;;;;9.37;7.37;;;;;;;;;;4965881;28;20490;-84
2024/01/31 01:39:53;;;;;;;11.40;8.30;;;;;;;;;;4960847;28;20547;-84
2024/01/31 01:42:23;;;;;;;11.40;7.57;;;;;;;;;;4969065;28;22381;-83
2024/01/31 01:44:53;;;;;;;11.23;8.03;;;;;;;;;;4972458;28;20555;-85
2024/01/31 01:47:20;;;;;;;10.93;8.43;;;;;;;;;;4946707;28;20461;-85
2024/01/31 01:49:50;;;;;;;10.97;7.70;;;;;;;;;;4948148;28;21043;-84
2024/01/31 01:52:17;;;;;;;8.50;6.20;;;;;;;;;;4951130;28;21334;-85
2024/01/31 01:54:45;;;;;;;8.63;7.00;;;;;;;;;;4953143;28;20553;-83
2024/01/31 01:57:19;;;;;;;11.07;8.30;;;;;;;;;;4949394;28;20554;-84
2024/01/31 01:59:47;;;;;;;9.93;6.77;;;;;;;;;;4948707;28;21243;-84
2024/01/31 02:02:15;;;;;;;8.53;6.80;;;;;;;;;;4948406;28;20556;-84
2024/01/31 02:04:45;;;;;;;8.70;6.80;;;;;;;;;;4949585;28;20512;-84
2024/01/31 02:07:24;;;;;;;8.43;6.70;;;;;;;;;;4941465;28;20578;-86
2024/01/31 02:09:53;;;;;;;10.00;7.10;;;;;;;;;;4949668;28;20488;-84
2024/01/31 02:12:20;;;;;;;12.23;7.20;;;;;;;;;;4953476;28;20447;-84
2024/01/31 02:14:52;;;;;;;11.67;7.23;;;;;;;;;;4960422;28;20461;-85
2024/01/31 02:17:21;;;;;;;9.37;7.03;;;;;;;;;;4975491;28;20501;-86
2024/01/31 02:19:48;;;;;;;11.40;7.90;;;;;;;;;;4947834;28;20492;-86
2024/01/31 02:22:21;;;;;;;9.77;7.60;;;;;;;;;;4953832;28;20535;-85
2024/01/31 02:24:50;;;;;;;9.90;7.53;;;;;;;;;;4958120;28;20535;-85
2024/01/31 02:27:20;;;;;;;11.03;7.97;;;;;;;;;;4945169;28;20475;-84
2024/01/31 02:29:48;;;;;;;12.43;8.77;;;;;;;;;;4939294;28;20454;-85
2024/01/31 02:32:16;;;;;;;12.50;9.10;;;;;;;;;;4954820;28;20959;-85
2024/01/31 02:34:46;;;;;;;12.30;8.23;;;;;;;;;;4941589;28;20525;-84
2024/01/31 02:37:14;;;;;;;9.87;7.47;;;;;;;;;;4954327;28;20552;-84
2024/01/31 02:39:46;;;;;;;13.23;8.93;;;;;;;;;;4958327;28;20556;-85
2024/01/31 02:42:23;;;;;;;13.37;9.70;;;;;;;;;;4945941;28;20489;-85
2024/01/31 02:44:51;;;;;;;12.27;8.47;;;;;;;;;;4954558;28;20521;-84
2024/01/31 02:47:20;;;;;;;13.33;8.73;;;;;;;;;;4953890;28;20460;-83
2024/01/31 02:49:50;;;;;;;13.40;8.50;;;;;;;;;;4958383;28;20458;-86
2024/01/31 02:52:17;;;;;;;12.53;9.67;;;;;;;;;;4941950;28;20464;-86
2024/01/31 02:54:45;;;;;;;13.70;9.60;;;;;;;;;;4948364;28;20464;-86
2024/01/31 02:57:15;;;;;;;14.73;10.27;;;;;;;;;;4949479;28;20555;-86
2024/01/31 02:59:42;;;;;;;14.30;10.10;;;;;;;;;;4954861;28;20515;-85
2024/01/31 03:02:10;;;;;;;15.97;10.53;;;;;;;;;;4938669;28;21011;-86
2024/01/31 03:04:37;;;;;;;14.20;10.60;;;;;;;;;;4957645;28;20716;-84
2024/01/31 03:07:04;;;;;;;16.47;10.90;;;;;;;;;;4952770;28;20724;-84
2024/01/31 03:09:32;;;;;;;15.70;10.10;;;;;;;;;;4950424;28;21025;-85
2024/01/31 03:12:04;;;;;;;16.97;11.17;;;;;;;;;;4957856;28;20498;-85
2024/01/31 03:14:35;;;;;;;14.60;10.63;;;;;;;;;;4951869;28;20457;-85
2024/01/31 03:17:04;;;;;;;15.87;10.47;;;;;;;;;;4954893;28;20559;-86
2024/01/31 03:19:37;;;;;;;14.50;9.40;;;;;;;;;;4974106;28;20605;-84
2024/01/31 03:22:08;;;;;;;16.17;10.77;;;;;;;;;;4957544;28;20509;-84
2024/01/31 03:24:37;;;;;;;15.03;11.03;;;;;;;;;;4947790;28;20460;-85
2024/01/31 03:27:10;;;;;;;14.40;9.60;;;;;;;;;;4955172;28;20555;-85
2024/01/31 03:29:45;;;;;;;17.47;10.37;;;;;;;;;;4955485;28;20977;-85
2024/01/31 03:32:12;;;;;;;15.33;10.73;;;;;;;;;;4956160;28;20472;-85
2024/01/31 03:34:39;;;;;;;15.97;10.60;;;;;;;;;;4941599;28;20581;-86
2024/01/31 03:37:07;;;;;;;15.10;10.17;;;;;;;;;;4943223;28;20581;-85
2024/01/31 03:39:34;;;;;;;19.73;11.83;;;;;;;;;;4944144;28;20586;-84
2024/01/31 03:42:04;;;;;;;16.50;11.20;;;;;;;;;;4941241;28;20491;-84
2024/01/31 03:44:33;;;;;;;18.03;11.27;;;;;;;;;;4959192;28;20939;-85
2024/01/31 03:47:02;;;;;;;16.63;10.83;;;;;;;;;;4938524;28;20562;-86
2024/01/31 03:49:33;;;;;;;16.27;10.00;;;;;;;;;;4937426;28;20471;-84
2024/01/31 03:52:02;;;;;;;15.00;10.10;;;;;;;;;;4958525;28;20519;-86
2024/01/31 03:54:32;;;;;;;16.27;10.80;;;;;;;;;;4944032;28;20465;-85
2024/01/31 03:56:59;;;;;;;18.10;11.07;;;;;;;;;;4948896;28;20463;-85
2024/01/31 03:59:27;;;;;;;15.70;9.93;;;;;;;;;;4955864;28;20447;-82
2024/01/31 04:01:54;;;;;;;16.17;11.20;;;;;;;;;;4957498;28;20477;-85
2024/01/31 04:04:22;;;;;;;18.53;11.87;;;;;;;;;;4978377;28;20435;-85
2024/01/31 04:06:58;;;;;;;18.00;10.17;;;;;;;;;;4974509;28;20462;-84
2024/01/31 04:09:25;;;;;;;14.50;10.30;;;;;;;;;;4975264;28;20454;-85
2024/01/31 04:11:59;;;;;;;18.57;10.53;;;;;;;;;;4960173;28;20473;-84
2024/01/31 04:14:29;;;;;;;14.97;9.60;;;;;;;;;;4962025;28;20451;-86
2024/01/31 04:16:57;;;;;;;12.63;10.27;;;;;;;;;;4986206;28;20537;-88
2024/01/31 04:19:24;;;;;;;12.80;9.33;;;;;;;;;;4972175;28;20496;-84
2024/01/31 04:21:53;;;;;;;15.47;10.10;;;;;;;;;;4973322;28;20480;-84
2024/01/31 04:24:20;;;;;;;14.23;10.47;;;;;;;;;;4969435;28;20504;-86
2024/01/31 04:26:50;;;;;;;17.40;10.70;;;;;;;;;;4982423;28;20592;-85
2024/01/31 04:29:22;;;;;;;14.70;10.20;;;;;;;;;;4959907;28;20529;-85
2024/01/31 04:31:53;;;;;;;11.80;8.63;;;;;;;;;;4957495;28;20453;-86
2024/01/31 04:34:21;;;;;;;15.63;10.83;;;;;;;;;;4954152;28;20465;-85
2024/01/31 04:36:51;;;;;;;17.70;10.60;;;;;;;;;;4964105;28;20469;-85
2024/01/31 04:39:19;;;;;;;18.97;12.10;;;;;;;;;;4963818;28;20481;-86
2024/01/31 04:41:47;;;;;;;14.63;10.20;;;;;;;;;;4954376;28;20485;-86
2024/01/31 04:44:14;;;;;;;14.10;10.40;;;;;;;;;;4967048;28;20516;-84
2024/01/31 04:46:41;;;;;;;15.07;10.77;;;;;;;;;;4960104;28;20468;-85
2024/01/31 04:49:12;;;;;;;18.83;11.97;;;;;;;;;;4960672;28;20514;-85
2024/01/31 04:51:41;;;;;;;21.47;11.23;;;;;;;;;;4955929;28;20481;-84
2024/01/31 04:54:09;;;;;;;15.20;11.10;;;;;;;;;;4978578;28;20477;-85
2024/01/31 04:56:36;;;;;;;14.80;10.20;;;;;;;;;;4978677;28;20488;-86
2024/01/31 04:59:08;;;;;;;18.23;11.60;;;;;;;;;;4954142;28;20525;-86
2024/01/31 05:01:45;;;;;;;14.13;9.97;;;;;;;;;;4962298;28;20537;-84
2024/01/31 05:04:15;;;;;;;12.47;8.90;;;;;;;;;;4946627;28;20553;-86
2024/01/31 05:06:46;;;;;;;12.60;7.07;;;;;;;;;;4954087;28;20516;-84
2024/01/31 05:09:17;;;;;;;12.83;6.73;;;;;;;;;;4962252;28;20462;-85
2024/01/31 05:11:54;;;;;;;8.40;6.27;;;;;;;;;;4949569;28;20469;-84
2024/01/31 05:14:21;;;;;;;10.03;5.87;;;;;;;;;;4943143;28;20556;-86
2024/01/31 05:16:53;;;;;;;8.03;5.90;;;;;;;;;;4945712;28;20468;-85
2024/01/31 05:19:25;;;;;;;9.13;6.87;;;;;;;;;;4945323;28;21802;-86
2024/01/31 05:21:56;;;;;;;10.10;6.40;;;;;;;;;;4966346;28;20492;-85
2024/01/31 05:24:24;;;;;;;5.53;4.93;;;;;;;;;;4959678;28;20468;-86
2024/01/31 05:26:56;;;;;;;9.13;5.27;;;;;;;;;;4969584;28;20464;-85
2024/01/31 05:29:27;;;;;;;8.97;5.63;;;;;;;;;;4947609;28;20473;-87
2024/01/31 05:31:57;;;;;;;6.10;4.90;;;;;;;;;;4948843;28;20450;-85
2024/01/31 05:34:26;;;;;;;7.27;5.90;;;;;;;;;;4945891;28;20496;-85
2024/01/31 05:36:53;;;;;;;12.87;6.83;;;;;;;;;;4947072;28;20802;-85
2024/01/31 05:39:23;;;;;;;8.63;6.00;;;;;;;;;;4944671;28;20526;-85
2024/01/31 05:41:50;;;;;;;13.50;7.63;;;;;;;;;;4947072;28;20487;-87
2024/01/31 05:44:21;;;;;;;13.93;8.40;;;;;;;;;;4945899;28;20549;-86
2024/01/31 05:46:51;;;;;;;11.27;6.50;;;;;;;;;;4947075;28;20834;-87
2024/01/31 05:49:20;;;;;;;10.30;7.27;;;;;;;;;;4945341;28;20491;-83
2024/01/31 05:51:51;;;;;;;14.23;8.13;;;;;;;;;;4944603;28;20497;-84
2024/01/31 05:54:25;;;;;;;10.73;6.40;;;;;;;;;;4946441;28;20782;-84
2024/01/31 05:56:56;;;;;;;11.60;8.00;;;;;;;;;;4947416;28;20981;-85
2024/01/31 05:59:26;;;;;;;11.87;6.87;;;;;;;;;;4975084;28;20455;-86
2024/01/31 06:01:57;;;;;;;13.10;9.20;;;;;;;;;;4964352;28;20480;-85
2024/01/31 06:04:27;;;;;;;9.63;7.63;;;;;;;;;;4966136;28;20449;-84
2024/01/31 06:07:02;;;;;;;9.17;6.43;;;;;;;;;;4965716;28;20457;-85
2024/01/31 06:09:30;;;;;;;11.87;6.83;;;;;;;;;;4963238;28;20547;-85
2024/01/31 06:12:00;;;;;;;12.60;7.57;;;;;;;;;;4959811;28;20460;-84
2024/01/31 06:14:31;;;;;;;12.07;6.77;;;;;;;;;;4945516;28;20465;-85
2024/01/31 06:17:04;;;;;;;10.30;7.00;;;;;;;;;;4949124;28;20772;-83
2024/01/31 06:19:31;;;;;;;11.20;7.40;;;;;;;;;;4950036;28;20458;-85
2024/01/31 06:22:07;;;;;;;9.23;6.50;;;;;;;;;;4969180;28;20489;-85
2024/01/31 06:24:38;;;;;;;10.93;7.60;;;;;;;;;;4954559;28;20576;-87
2024/01/31 06:27:09;;;;;;;13.60;7.60;;;;;;;;;;4958632;28;20469;-85
2024/01/31 06:29:39;;;;;;;10.40;8.10;;;;;;;;;;4972259;28;20567;-84
2024/01/31 06:32:10;;;;;;;8.43;6.40;;;;;;;;;;4959630;28;20516;-84
2024/01/31 06:34:40;;;;;;;13.70;8.57;;;;;;;;;;4959477;28;20455;-85
2024/01/31 06:37:08;;;;;;;15.37;8.40;;;;;;;;;;4953248;28;20479;-85
2024/01/31 06:39:38;;;;;;;13.40;8.00;;;;;;;;;;4959015;28;21084;-84
2024/01/31 06:42:07;;;;;;;12.87;7.70;;;;;;;;;;4954398;28;20488;-86
2024/01/31 06:44:40;;;;;;;15.70;8.50;;;;;;;;;;4980071;28;20461;-84
2024/01/31 06:47:10;;;;;;;14.97;8.10;;;;;;;;;;4969418;28;20468;-84
2024/01/31 06:49:37;;;;;;;13.23;8.63;;;;;;;;;;4954242;28;20452;-84
2024/01/31 06:52:10;;;;;;;13.53;9.13;;;;;;;;;;4962377;28;20458;-86
2024/01/31 06:54:39;;;;;;;14.80;7.77;;;;;;;;;;4986382;28;20451;-84
2024/01/31 06:57:06;;;;;;;12.20;8.73;;;;;;;;;;4966750;28;20477;-84
2024/01/31 06:59:35;;;;;;;10.73;7.70;;;;;;;;;;4962903;28;20446;-86
2024/01/31 07:02:02;;;;;;;15.43;9.47;;;;;;;;;;4955986;28;20517;-86
2024/01/31 07:04:30;;;;;;;12.80;7.30;;;;;;;;;;4970820;28;20460;-87
2024/01/31 07:06:58;;;;;;;12.10;6.90;;;;;;;;;;4969875;28;20493;-86
2024/01/31 07:09:26;;;;;;;11.50;7.43;;;;;;;;;;4959261;28;20503;-87
2024/01/31 07:11:53;;;;;;;13.20;7.53;;;;;;;;;;4977173;28;20469;-86
2024/01/31 07:14:23;;;;;;;10.93;7.47;;;;;;;;;;4968370;28;21521;-85
2024/01/31 07:16:50;;;;;;;11.43;7.00;;;;;;;;;;4985825;28;20502;-85
2024/01/31 07:19:18;;;;;;;12.93;7.67;;;;;;;;;;4975675;28;20606;-86
2024/01/31 07:21:46;;;;;;;12.10;8.23;;;;;;;;;;4978291;28;20539;-86
2024/01/31 07:24:14;;;;;;;12.60;8.20;;;;;;;;;;4968721;28;20513;-82
2024/01/31 07:26:49;;;;;;;11.77;8.40;;;;;;;;;;4965861;28;20546;-84
2024/01/31 07:29:19;;;;;;;13.83;8.43;;;;;;;;;;4975071;28;21466;-87
2024/01/31 07:32:00;;;;;;;14.10;7.90;;;;;;;;;;4950954;28;20486;-85
2024/01/31 07:34:28;;;;;;;14.97;8.10;;;;;;;;;;4976377;28;20444;-84
2024/01/31 07:36:56;;;;;;;15.27;8.47;;;;;;;;;;4980180;28;20866;-86
2024/01/31 07:39:24;;;;;;;14.97;9.30;;;;;;;;;;4960973;28;20501;-85
2024/01/31 07:41:52;;;;;;;16.50;9.30;;;;;;;;;;4953995;28;20566;-87
2024/01/31 07:44:20;;;;;;;14.03;8.87;;;;;;;;;;4965752;28;20485;-84
2024/01/31 07:46:48;;;;;;;12.03;8.17;;;;;;;;;;4952422;28;20468;-85
2024/01/31 07:49:17;;;;;;;10.30;7.07;;;;;;;;;;4963764;28;20477;-84
2024/01/31 07:51:45;;;;;;;14.67;8.60;;;;;;;;;;4968859;28;20465;-85
2024/01/31 07:54:13;;;;;;;11.00;6.80;;;;;;;;;;4964378;28;20466;-84
2024/01/31 07:56:40;;;;;;;8.80;5.97;;;;;;;;;;4968283;28;20460;-86
2024/01/31 07:59:08;;;;;;;11.40;6.20;;;;;;;;;;4956942;28;20501;-85
2024/01/31 08:01:35;;;;;;;6.13;4.40;;;;;;;;;;4955772;28;20568;-86
2024/01/31 08:04:07;;;;;;;7.17;4.50;;;;;;;;;;4960095;28;20494;-84
2024/01/31 08:06:37;;;;;;;6.83;4.80;;;;;;;;;;4956698;28;20977;-85
2024/01/31 08:09:07;;;;;;;9.03;5.50;;;;;;;;;;4945750;28;20509;-86
2024/01/31 08:11:45;;;;;;;10.27;5.70;;;;;;;;;;4962657;28;20464;-86
2024/01/31 08:14:13;;;;;;;9.67;6.20;;;;;;;;;;4949758;28;20631;-86
2024/01/31 08:16:40;;;;;;;8.67;6.10;;;;;;;;;;4949742;28;21312;-85
2024/01/31 08:19:07;;;;;;;14.30;8.37;;;;;;;;;;4972661;28;20597;-86
2024/01/31 08:21:36;;;;;;;14.93;9.07;;;;;;;;;;4951889;28;20516;-86
2024/01/31 08:24:03;;;;;;;15.30;9.70;;;;;;;;;;4949456;28;20476;-87
2024/01/31 08:26:31;;;;;;;19.73;10.90;;;;;;;;;;4953292;28;20557;-87
2024/01/31 08:28:59;;;;;;;17.00;9.77;;;;;;;;;;4968826;28;20497;-84
2024/01/31 08:31:35;;;;;;;19.07;11.70;;;;;;;;;;4974516;28;20492;-83
2024/01/31 08:34:03;;;;;;;19.53;10.60;;;;;;;;;;4957680;28;20533;-85
2024/01/31 08:36:36;;;;;;;22.53;12.30;;;;;;;;;;4962766;28;20458;-86
2024/01/31 08:39:04;;;;;;;19.07;11.40;;;;;;;;;;4950008;28;20489;-86
2024/01/31 08:41:31;;;;;;;16.97;10.17;;;;;;;;;;4949659;28;20487;-86
2024/01/31 08:44:04;;;;;;;20.93;12.60;;;;;;;;;;4964934;28;20445;-85
2024/01/31 08:46:35;;;;;;;24.93;13.00;;;;;;;;;;4971369;28;20441;-84
2024/01/31 08:49:13;;;;;;;23.10;13.40;;;;;;;;;;4951409;28;20518;-85
2024/01/31 08:51:41;;;;;;;25.17;14.57;;;;;;;;;;4950074;28;20499;-85
2024/01/31 08:54:08;;;;;;;22.40;12.97;;;;;;;;;;4948547;28;20456;-84
2024/01/31 08:56:35;;;;;;;21.40;12.30;;;;;;;;;;4963222;28;20482;-86
2024/01/31 08:59:05;;;;;;;22.13;12.30;;;;;;;;;;4951461;28;20482;-86
2024/01/31 09:01:51;;;;;;;20.57;11.80;;;;;;;;;;4947699;28;20565;-86
2024/01/31 09:04:18;;;;;;;19.50;11.57;;;;;;;;;;4948954;28;20540;-86
2024/01/31 09:06:51;;;;;;;16.63;11.73;;;;;;;;;;4954715;28;20448;-86
2024/01/31 09:09:19;;;;;;;18.60;13.00;;;;;;;;;;4957301;28;20487;-85
2024/01/31 09:11:47;;;;;;;19.53;11.90;;;;;;;;;;4967525;28;20460;-85
2024/01/31 09:14:14;;;;;;;22.17;12.93;;;;;;;;;;4956641;28;20519;-86
2024/01/31 09:16:42;;;;;;;19.97;12.73;;;;;;;;;;4967401;28;20539;-86
2024/01/31 09:19:09;;;;;;;20.80;11.87;;;;;;;;;;4961421;28;20529;-86
2024/01/31 09:21:37;;;;;;;20.63;12.00;;;;;;;;;;4973086;28;20484;-85
2024/01/31 09:24:04;;;;;;;21.57;12.50;;;;;;;;;;4968771;28;20469;-84
2024/01/31 09:26:32;;;;;;;24.00;14.10;;;;;;;;;;4963251;28;20452;-84
2024/01/31 09:28:59;;;;;;;22.00;13.50;;;;;;;;;;4952346;28;20519;-88
2024/01/31 09:31:28;;;;;;;22.47;13.10;;;;;;;;;;4969175;28;20472;-85
2024/01/31 09:33:57;;;;;;;22.13;13.20;;;;;;;;;;4957409;28;20492;-85
2024/01/31 09:36:26;;;;;;;22.77;13.03;;;;;;;;;;4969383;28;20474;-86
2024/01/31 09:38:53;;;;;;;23.40;13.97;;;;;;;;;;4970470;28;20856;-84
2024/01/31 09:41:21;;;;;;;20.60;12.30;;;;;;;;;;4952553;28;20581;-84
2024/01/31 09:43:53;;;;;;;28.00;13.93;;;;;;;;;;4973731;28;20489;-85
2024/01/31 09:46:34;;;;;;;21.03;13.33;;;;;;;;;;4963181;28;20551;-87
2024/01/31 09:49:02;;;;;;;22.93;14.90;;;;;;;;;;4970675;28;20484;-85
2024/01/31 09:51:32;;;;;;;24.50;14.97;;;;;;;;;;4970157;28;20476;-86
2024/01/31 09:54:08;;;;;;;24.13;14.27;;;;;;;;;;4955298;28;20446;-87
2024/01/31 09:56:38;;;;;;;20.90;13.10;;;;;;;;;;4977514;28;20480;-85
2024/01/31 09:59:15;;;;;;;24.80;15.50;;;;;;;;;;4972475;28;20497;-86
2024/01/31 10:01:42;;;;;;;24.87;14.00;;;;;;;;;;4953681;28;20567;-83
2024/01/31 10:04:10;;;;;;;17.37;12.27;;;;;;;;;;4970138;28;20449;-85
2024/01/31 10:06:37;;;;;;;23.33;14.90;;;;;;;;;;4956437;28;20470;-86
2024/01/31 10:09:06;;;;;;;25.70;12.93;;;;;;;;;;4970014;28;20522;-85
2024/01/31 10:11:34;;;;;;;21.40;13.37;;;;;;;;;;4962729;28;20462;-86
2024/01/31 10:14:02;;;;;;;18.00;12.07;;;;;;;;;;4978013;28;20473;-85
2024/01/31 10:16:29;;;;;;;20.77;12.77;;;;;;;;;;4982566;28;20511;-87
2024/01/31 10:18:59;;;;;;;19.50;11.63;;;;;;;;;;4979902;28;20468;-86
2024/01/31 10:21:26;;;;;;;19.13;11.30;;;;;;;;;;4978181;28;20469;-86
2024/01/31 10:24:00;;;;;;;13.70;9.10;;;;;;;;;;4962320;28;20476;-85
2024/01/31 10:26:30;;;;;;;13.93;9.47;;;;;;;;;;4952613;28;20446;-86
2024/01/31 10:29:14;;;;;;;14.50;8.10;;;;;;;;;;4962024;28;20457;-86
2024/01/31 10:31:58;;;;;;;12.40;8.90;;;;;;;;;;4977183;28;20526;-86
2024/01/31 10:34:29;;;;;;;11.83;8.53;;;;;;;;;;4975058;28;20545;-87
2024/01/31 10:37:06;;;;;;;10.80;7.60;;;;;;;;;;4955386;28;20476;-87
2024/01/31 10:39:45;;;;;;;9.37;6.97;;;;;;;;;;4960417;28;20479;-84
2024/01/31 10:42:16;;;;;;;9.43;6.23;;;;;;;;;;4964600;28;20575;-85
2024/01/31 10:44:46;;;;;;;10.73;6.43;;;;;;;;;;4985717;28;20457;-86
2024/01/31 10:47:19;;;;;;;9.43;6.60;;;;;;;;;;4970600;28;20497;-85
2024/01/31 10:49:46;;;;;;;9.57;7.10;;;;;;;;;;4968534;28;20946;-85
2024/01/31 10:52:20;;;;;;;7.47;5.70;;;;;;;;;;4980269;28;20489;-85
2024/01/31 10:54:52;;;;;;;9.33;5.50;;;;;;;;;;4954586;28;20449;-85
2024/01/31 10:57:22;;;;;;;9.40;6.07;;;;;;;;;;4968883;28;20506;-86
2024/01/31 10:59:59;;;;;;;7.70;4.80;;;;;;;;;;4954169;28;20463;-86
2024/01/31 11:02:31;;;;;;;7.43;5.63;;;;;;;;;;4951963;28;20485;-87
2024/01/31 11:05:02;;;;;;;10.37;5.37;;;;;;;;;;4966890;28;20488;-86
2024/01/31 11:07:43;;;;;;;5.80;4.80;;;;;;;;;;4951461;28;20512;-85
2024/01/31 11:10:12;;;;;;;6.57;5.67;;;;;;;;;;4950261;28;20449;-86
2024/01/31 11:12:43;;;;;;;6.57;4.83;;;;;;;;;;4970988;28;20475;-88
2024/01/31 11:15:10;;;;;;;5.53;4.60;;;;;;;;;;4956755;28;20469;-87
2024/01/31 11:17:43;;;;;;;6.27;4.77;;;;;;;;;;4968808;28;20968;-85
2024/01/31 11:20:18;;;;;;;9.37;5.47;;;;;;;;;;4980627;28;20475;-86
2024/01/31 11:22:46;;;;;;;6.20;4.57;;;;;;;;;;4962962;28;20469;-86
2024/01/31 11:25:27;;;;;;;5.73;4.53;;;;;;;;;;4963932;28;20505;-86
2024/01/31 11:28:00;;;;;;;5.63;4.37;;;;;;;;;;4966027;28;20588;-86
2024/01/31 11:30:52;;;;;;;4.70;4.20;;;;;;;;;;4964018;28;20824;-86
2024/01/31 11:33:23;;;;;;;5.03;4.03;;;;;;;;;;4956477;28;20457;-86
2024/01/31 11:35:51;;;;;;;6.20;4.77;;;;;;;;;;4955280;28;20673;-85
2024/01/31 11:38:24;;;;;;;4.70;3.80;;;;;;;;;;4960090;28;20486;-85
2024/01/31 11:41:01;;;;;;;4.63;3.60;;;;;;;;;;4949097;28;20465;-86
2024/01/31 11:43:29;;;;;;;3.93;3.53;;;;;;;;;;4961108;28;20558;-86
2024/01/31 11:45:56;;;;;;;8.37;6.40;;;;;;;;;;4960612;28;21172;-86
2024/01/31 11:48:26;;;;;;;5.93;4.87;;;;;;;;;;4957435;28;20477;-86
2024/01/31 11:50:56;;;;;;;4.40;3.80;;;;;;;;;;4958381;28;20462;-86
2024/01/31 11:53:24;;;;;;;4.80;4.07;;;;;;;;;;4950231;28;20484;-86
2024/01/31 11:55:58;;;;;;;5.33;4.30;;;;;;;;;;4955833;28;21040;-85
2024/01/31 11:58:25;;;;;;;5.43;4.00;;;;;;;;;;4972900;28;20611;-87
2024/01/31 12:00:53;;;;;;;4.90;3.87;;;;;;;;;;4973461;28;20471;-86
2024/01/31 12:03:29;;;;;;;5.20;4.40;;;;;;;;;;4970663;28;20481;-86
2024/01/31 12:05:58;;;;;;;4.70;3.93;;;;;;;;;;4964683;28;20465;-86
2024/01/31 12:08:34;;;;;;;6.10;4.53;;;;;;;;;;4972901;28;20987;-86
2024/01/31 12:11:06;;;;;;;4.77;4.27;;;;;;;;;;4942989;28;20456;-83
2024/01/31 12:13:33;;;;;;;3.20;2.90;;;;;;;;;;4945808;28;20472;-85
2024/01/31 12:16:01;;;;;;;3.67;3.30;;;;;;;;;;4965664;28;20494;-86
2024/01/31 12:18:34;;;;;;;4.13;3.73;;;;;;;;;;4948370;28;20575;-85
2024/01/31 12:21:15;;;;;;;4.07;3.67;;;;;;;;;;4938437;28;20453;-84
2024/01/31 12:23:42;;;;;;;5.00;3.80;;;;;;;;;;4944048;28;20481;-86
2024/01/31 12:26:10;;;;;;;4.37;3.97;;;;;;;;;;4955903;28;20496;-85
2024/01/31 12:28:41;;;;;;;5.50;4.30;;;;;;;;;;4945423;28;20469;-84
2024/01/31 12:31:09;;;;;;;5.13;4.10;;;;;;;;;;4946451;28;20453;-83
2024/01/31 12:33:47;;;;;;;4.80;4.27;;;;;;;;;;4944361;28;20561;-84
2024/01/31 12:36:14;;;;;;;4.83;4.10;;;;;;;;;;4938026;28;20460;-86
2024/01/31 12:38:42;;;;;;;7.57;4.20;;;;;;;;;;4972335;28;20471;-83
2024/01/31 12:41:09;;;;;;;5.57;4.37;;;;;;;;;;4949350;28;20473;-82
2024/01/31 12:43:36;;;;;;;5.23;3.60;;;;;;;;;;4946981;28;20487;-83
2024/01/31 12:46:03;;;;;;;4.37;3.97;;;;;;;;;;4944379;28;21558;-82
2024/01/31 12:52:24;;;;;;;4.60;4.17;;;;;;;;;;4922941;29;20446;-83
2024/01/31 12:58:41;;;;;;;4.33;3.93;;;;;;;;;;4966678;28;20469;-84
2024/01/31 13:01:32;;;;;;;4.13;3.73;;;;;;;;;;4959579;28;20548;-82
2024/01/31 13:04:20;;;;;;;4.80;4.30;;;;;;;;;;4971735;28;20491;-84
2024/01/31 13:06:51;;;;;;;5.10;4.30;;;;;;;;;;4985352;28;21135;-84
2024/01/31 13:09:24;;;;;;;4.60;4.17;;;;;;;;;;4985467;28;20437;-84
2024/01/31 13:11:55;;;;;;;5.60;4.20;;;;;;;;;;4973768;28;21133;-84
2024/01/31 13:14:32;;;;;;;5.63;4.77;;;;;;;;;;4962670;28;20438;-84
2024/01/31 13:17:05;;;;;;;8.87;7.00;;;;;;;;;;4965180;28;20477;-82
2024/01/31 13:19:47;;;;;;;5.10;4.40;;;;;;;;;;4950602;28;20453;-85
2024/01/31 13:22:14;;;;;;;4.83;4.30;;;;;;;;;;4956422;28;20498;-84
2024/01/31 13:24:41;;;;;;;5.00;4.00;;;;;;;;;;4966769;28;20460;-84
2024/01/31 13:27:08;;;;;;;5.17;4.10;;;;;;;;;;4945895;28;20465;-85
2024/01/31 13:29:37;;;;;;;4.50;4.10;;;;;;;;;;4934213;28;20444;-83
2024/01/31 13:32:05;;;;;;;4.90;4.30;;;;;;;;;;4949496;28;20481;-83
2024/01/31 13:34:32;;;;;;;4.60;3.40;;;;;;;;;;4967117;28;21155;-83
2024/01/31 13:37:06;;;;;;;4.07;3.57;;;;;;;;;;4961176;28;20655;-83
2024/01/31 13:39:37;;;;;;;3.17;2.87;;;;;;;;;;4942469;28;20466;-82
2024/01/31 13:42:13;;;;;;;4.30;3.17;;;;;;;;;;4941820;28;20466;-83
2024/01/31 13:44:50;;;;;;;3.63;2.70;;;;;;;;;;4943119;28;20489;-83
2024/01/31 13:47:37;;;;;;;3.30;2.77;;;;;;;;;;4942374;28;20472;-83
2024/01/31 13:50:35;;;;;;;3.23;2.93;;;;;;;;;;4957276;28;20535;-84
2024/01/31 13:53:21;;;;;;;4.00;3.13;;;;;;;;;;4941418;28;20466;-85
2024/01/31 13:56:01;;;;;;;4.80;2.43;;;;;;;;;;4945300;28;20462;-86
2024/01/31 13:58:31;;;;;;;2.43;2.23;;;;;;;;;;4943769;28;21016;-83
2024/01/31 14:00:58;;;;;;;2.77;2.00;;;;;;;;;;4942412;28;20453;-83
2024/01/31 14:03:28;;;;;;;2.50;2.23;;;;;;;;;;4938674;28;20533;-83
2024/01/31 14:05:56;;;;;;;2.10;2.00;;;;;;;;;;4949819;28;20461;-83
2024/01/31 14:08:29;;;;;;;3.20;2.57;;;;;;;;;;4961522;28;20465;-82
2024/01/31 14:10:59;;;;;;;2.60;2.40;;;;;;;;;;4964994;28;20452;-84
2024/01/31 14:13:31;;;;;;;2.47;2.27;;;;;;;;;;4977975;28;20468;-84
2024/01/31 14:16:14;;;;;;;2.80;2.60;;;;;;;;;;4959287;28;20472;-83
2024/01/31 14:18:46;;;;;;;2.90;2.60;;;;;;;;;;4951096;28;20499;-83
2024/01/31 14:21:28;;;;;;;4.17;2.90;;;;;;;;;;4950893;28;20485;-83
2024/01/31 14:24:02;;;;;;;3.40;2.80;;;;;;;;;;4942475;28;20496;-84
2024/01/31 14:26:38;;;;;;;3.30;2.33;;;;;;;;;;4948626;28;20452;-83
2024/01/31 14:29:12;;;;;;;3.70;2.67;;;;;;;;;;4952071;28;20483;-83
2024/01/31 14:31:45;;;;;;;3.90;2.93;;;;;;;;;;4955482;28;20473;-84
2024/01/31 14:34:17;;;;;;;3.13;2.83;;;;;;;;;;4953020;28;21115;-83
2024/01/31 14:36:45;;;;;;;2.87;2.67;;;;;;;;;;4950038;28;20990;-84
2024/01/31 14:39:25;;;;;;;3.30;3.00;;;;;;;;;;4959533;28;20469;-83
2024/01/31 14:41:53;;;;;;;5.20;2.90;;;;;;;;;;4961869;28;20550;-84
2024/01/31 14:44:25;;;;;;;3.93;3.30;;;;;;;;;;4949792;28;20492;-85
2024/01/31 14:46:53;;;;;;;3.40;3.10;;;;;;;;;;4955639;28;20469;-84
2024/01/31 14:49:27;;;;;;;4.40;3.10;;;;;;;;;;4956389;28;20463;-82
2024/01/31 14:51:59;;;;;;;4.33;3.20;;;;;;;;;;4965459;28;20479;-84
2024/01/31 14:54:29;;;;;;;3.27;2.97;;;;;;;;;;4948323;28;20477;-83
2024/01/31 14:57:00;;;;;;;4.13;3.40;;;;;;;;;;4949438;28;20480;-85
2024/01/31 14:59:36;;;;;;;3.23;3.00;;;;;;;;;;4945435;28;20485;-85
2024/01/31 15:02:09;;;;;;;5.33;3.37;;;;;;;;;;4943281;28;20537;-84